Terminal Aerodrome Forecast
Issued by NWS Dallas/Fort Worth, TX

Home | Current Version | Previous Version | Text Only | Print | Product List | Glossary On
Versions: 1 2 3 4 5 6 7 8 9 10 11 12 13 14 15 16 17 18 19 20 21 22 23 24 25 26 27 28 29 30 31
000
FTUS44 KFWD 041503 AAA
TAFDFW
TAF AMD
KDFW 041503Z 0415/0518 20010KT P6SM SCT060 BKN150 BKN250
     FM042100 18010KT P6SM VCTS SCT040CB BKN150
     FM050000 17011KT P6SM SCT050 BKN100
     FM051000 20010KT P6SM SCT030 BKN250=

USA.gov is the U.S. government's official web portal to all federal, state and local government web resources and services.